2019/06/26 08:50 EDDV 260850Z 27010KT 240V300 CAVOK 30/20 Q1021 NOSIG